Time;durP1;ratioP1;P1;durP2;ratioP2;P2;SDS_P1;SDS_P2;PMS_P1;PMS_P2;Temp;Humidity;BMP_temperature;BMP_pressure;BME280_temperature;BME280_humidity;BME280_pressure;Samples;Min_cycle;Max_cycle;Signal;HPM_P1;HPM_P2
2022/12/28 00:01:24;;;;;;;8.88;1.75;;;10.00;99.90;;;9.18;100.00;101631.69;4169918;28;20121;-71
2022/12/28 00:03:27;;;;;;;8.75;2.20;;;10.00;99.90;;;9.25;100.00;101632.88;4168783;28;20026;-71
2022/12/28 00:05:28;;;;;;;11.60;2.00;;;10.10;99.90;;;9.25;100.00;101632.03;4169792;28;20374;-72
2022/12/28 00:07:28;;;;;;;10.95;1.77;;;10.10;99.90;;;9.28;100.00;101629.16;4168633;28;20091;-72
2022/12/28 00:09:29;;;;;;;14.45;2.13;;;10.10;99.90;;;9.30;100.00;101625.44;4168228;28;20033;-71
2022/12/28 00:11:31;;;;;;;9.02;1.35;;;10.10;99.90;;;9.29;100.00;101617.63;4169598;28;20022;-71
2022/12/28 00:13:33;;;;;;;6.97;1.80;;;10.20;99.90;;;9.26;100.00;101615.25;4170152;28;20385;-72
2022/12/28 00:15:36;;;;;;;9.13;2.00;;;10.20;99.90;;;9.25;100.00;101603.06;4168348;28;20053;-71
2022/12/28 00:17:37;;;;;;;9.38;1.50;;;10.10;99.90;;;9.28;100.00;101616.00;4151918;28;20030;-72
2022/12/28 00:19:38;;;;;;;14.10;2.53;;;10.20;99.90;;;9.23;100.00;101607.63;4169917;28;20497;-72
2022/12/28 00:21:39;;;;;;;13.75;2.63;;;10.20;99.90;;;9.26;100.00;101600.31;4168600;28;20056;-71
2022/12/28 00:23:40;;;;;;;7.90;1.50;;;10.20;99.90;;;9.43;100.00;101614.72;4168432;28;20159;-71
2022/12/28 00:25:40;;;;;;;9.43;1.67;;;10.20;99.90;;;9.36;100.00;101606.50;4169482;28;20029;-71
2022/12/28 00:27:41;;;;;;;10.35;1.83;;;10.20;99.90;;;9.34;100.00;101608.44;4169447;28;20504;-71
2022/12/28 00:29:42;;;;;;;15.55;4.07;;;10.20;99.90;;;9.36;100.00;101608.28;4168428;28;20049;-71
2022/12/28 00:31:44;;;;;;;8.23;2.22;;;10.30;99.90;;;9.39;100.00;101605.41;4169489;28;20025;-71
2022/12/28 00:33:45;;;;;;;10.70;1.90;;;10.30;99.90;;;9.38;100.00;101608.97;4168258;28;20031;-71
2022/12/28 00:35:56;;;;;;;13.73;2.50;;;10.30;99.90;;;9.36;100.00;101608.28;4169291;28;20116;-72
2022/12/28 00:37:57;;;;;;;10.30;2.47;;;10.30;99.90;;;9.29;100.00;101592.16;4169412;28;20021;-71
2022/12/28 00:39:58;;;;;;;8.07;1.88;;;10.20;99.90;;;9.29;100.00;101588.69;4168482;28;20108;-71
2022/12/28 00:41:59;;;;;;;8.75;2.05;;;10.20;99.90;;;9.21;100.00;101576.16;4167814;28;20022;-71
2022/12/28 00:44:00;;;;;;;19.80;2.85;;;10.20;99.90;;;9.26;100.00;101588.94;4169477;28;20030;-71
2022/12/28 00:46:01;;;;;;;13.10;3.63;;;10.20;99.90;;;9.25;100.00;101592.56;4168050;28;20492;-71
2022/12/28 00:48:02;;;;;;;22.30;3.78;;;10.20;99.90;;;9.31;100.00;101578.88;4169212;28;20017;-71
2022/12/28 00:50:04;;;;;;;10.73;2.10;;;10.20;99.90;;;9.31;100.00;101582.34;4169262;28;20025;-71
2022/12/28 00:52:05;;;;;;;9.55;1.50;;;10.20;99.90;;;9.34;100.00;101573.34;4169440;28;20576;-71
2022/12/28 00:54:06;;;;;;;13.25;2.72;;;10.20;99.90;;;9.33;100.00;101571.69;4161540;28;20026;-71
2022/12/28 00:56:13;;;;;;;11.80;2.45;;;10.20;99.90;;;9.36;100.00;101566.16;4162082;28;20025;-71
2022/12/28 00:58:14;;;;;;;16.75;2.72;;;10.30;99.90;;;9.36;100.00;101564.38;4151446;28;20038;-72
2022/12/28 01:00:15;;;;;;;12.52;2.58;;;10.30;99.90;;;9.31;100.00;101561.28;4169108;28;20382;-72
2022/12/28 01:02:16;;;;;;;14.18;3.17;;;10.30;99.90;;;9.32;100.00;101562.09;4167611;28;20034;-72
2022/12/28 01:04:17;;;;;;;17.98;2.55;;;10.20;99.90;;;9.28;100.00;101560.69;4169016;28;20393;-71
2022/12/28 01:06:19;;;;;;;13.30;2.03;;;10.20;99.90;;;9.28;100.00;101566.81;4168981;28;20033;-71
2022/12/28 01:08:21;;;;;;;13.18;1.83;;;10.20;99.90;;;9.29;100.00;101567.63;4167949;28;20036;-71
2022/12/28 01:10:22;;;;;;;10.32;2.88;;;10.20;99.90;;;9.26;100.00;101573.97;4167803;28;20033;-71
2022/12/28 01:12:23;;;;;;;11.82;2.15;;;10.20;99.90;;;9.19;100.00;101558.84;4168728;28;20503;-71
2022/12/28 01:14:24;;;;;;;8.27;1.73;;;10.20;99.90;;;9.17;100.00;101566.84;4168789;28;20027;-71
2022/12/28 01:16:31;;;;;;;15.27;2.38;;;10.10;99.90;;;9.22;100.00;101559.41;4168840;28;20048;-71
2022/12/28 01:18:32;;;;;;;13.43;2.78;;;10.10;99.90;;;9.24;100.00;101564.53;4167896;28;20044;-71
2022/12/28 01:20:33;;;;;;;10.88;2.58;;;10.10;99.90;;;9.26;100.00;101550.28;4167951;28;20021;-71
2022/12/28 01:22:34;;;;;;;11.20;2.63;;;10.10;99.90;;;9.17;100.00;101555.50;4150710;28;20486;-71
2022/12/28 01:24:35;;;;;;;13.18;2.60;;;10.10;99.90;;;9.21;100.00;101552.47;4168787;28;20036;-71
2022/12/28 01:26:36;;;;;;;16.10;2.45;;;10.10;99.90;;;9.23;100.00;101552.34;4168518;28;20089;-71
2022/12/28 01:28:37;;;;;;;8.25;1.85;;;10.10;99.90;;;9.23;100.00;101552.34;4168845;28;20025;-71
2022/12/28 01:30:37;;;;;;;14.68;2.60;;;10.10;99.90;;;9.26;100.00;101557.34;4168763;28;20045;-71
2022/12/28 01:32:38;;;;;;;12.60;1.70;;;10.10;99.90;;;9.22;100.00;101553.31;4169065;28;20022;-71
2022/12/28 01:34:39;;;;;;;11.90;2.65;;;10.10;99.90;;;9.19;100.00;101549.16;4167744;28;20192;-71
2022/12/28 01:36:40;;;;;;;7.57;2.55;;;10.10;99.90;;;9.14;100.00;101553.13;4167330;28;20436;-71
2022/12/28 01:38:42;;;;;;;10.23;2.08;;;10.10;99.90;;;9.11;100.00;101548.94;4167396;28;20115;-71
2022/12/28 01:40:43;;;;;;;11.85;1.83;;;10.10;99.90;;;9.03;100.00;101540.00;4167346;28;20390;-71
2022/12/28 01:42:44;;;;;;;15.00;2.28;;;10.00;99.90;;;9.06;100.00;101545.00;4167371;28;20045;-71
2022/12/28 01:44:49;;;;;;;16.35;2.38;;;10.00;99.90;;;9.02;100.00;101543.59;4167426;28;20026;-71
2022/12/28 01:46:53;;;;;;;;;;;10.00;99.90;;;8.98;100.00;101544.81;4168899;28;20069;-71
2022/12/28 01:49:00;;;;;;;8.20;1.60;;;10.00;99.90;;;9.11;100.00;101543.66;4167514;28;19951;-71
2022/12/28 01:51:01;;;;;;;12.02;2.15;;;10.00;99.90;;;9.09;100.00;101534.22;4166710;28;20025;-71
2022/12/28 01:53:04;;;;;;;12.35;2.30;;;10.00;99.90;;;9.16;100.00;101532.75;4167413;28;20026;-71
2022/12/28 01:55:20;;;;;;;10.35;1.63;;;10.00;99.90;;;9.20;100.00;101537.63;4154987;28;20033;-71
2022/12/28 01:57:26;;;;;;;19.77;2.33;;;10.00;99.90;;;9.10;100.00;101530.63;4167272;28;20030;-71
2022/12/28 01:59:32;;;;;;;11.73;2.20;;;10.00;99.90;;;9.12;100.00;101529.56;4167400;28;20021;-71
2022/12/28 02:01:33;;;;;;;11.38;2.70;;;10.00;99.90;;;9.04;100.00;101532.00;4168413;28;20421;-71
2022/12/28 02:03:35;;;;;;;10.38;2.28;;;10.00;99.90;;;9.01;100.00;101528.78;4150843;28;20402;-71
2022/12/28 02:05:44;;;;;;;7.85;2.13;;;9.90;99.90;;;8.99;100.00;101534.16;4167301;28;20022;-71
2022/12/28 02:08:03;;;;;;;16.10;1.65;;;9.90;99.90;;;8.98;100.00;101529.03;4167369;28;20021;-71
2022/12/28 02:10:05;;;;;;;15.38;1.90;;;9.90;99.90;;;8.94;100.00;101527.59;4167557;28;20033;-72
2022/12/28 02:12:14;;;;;;;9.40;2.30;;;9.90;99.90;;;8.88;100.00;101515.78;4168184;28;20024;-72
2022/12/28 02:14:16;;;;;;;10.93;1.83;;;9.80;99.90;;;8.90;100.00;101522.59;4167109;28;20449;-71
2022/12/28 02:16:18;;;;;;;14.80;2.50;;;9.80;99.90;;;8.88;100.00;101515.78;4154164;28;20042;-71
2022/12/28 02:18:21;;;;;;;11.45;2.22;;;9.80;99.90;;;8.95;100.00;101516.97;4168395;28;20038;-71
2022/12/28 02:20:51;;;;;;;16.60;2.90;;;9.80;99.90;;;8.94;100.00;101514.44;4168490;28;20034;-71
2022/12/28 02:23:26;;;;;;;9.50;1.98;;;9.90;99.90;;;8.98;100.00;101521.13;4117822;28;20045;-71
2022/12/28 02:25:33;;;;;;;9.73;1.98;;;9.90;99.90;;;9.00;100.00;101522.66;4168155;28;20113;-71
2022/12/28 02:27:44;;;;;;;13.30;2.83;;;9.90;99.90;;;9.02;100.00;101514.66;4168341;28;20073;-71
2022/12/28 02:30:02;;;;;;;15.95;2.30;;;9.90;99.90;;;8.99;100.00;101518.34;4168453;28;20029;-71
2022/12/28 02:32:14;;;;;;;14.50;2.50;;;9.90;99.90;;;8.96;100.00;101512.53;4169641;28;20052;-71
2022/12/28 02:34:40;;;;;;;12.90;2.20;;;9.90;99.90;;;8.98;100.00;101513.22;4170492;28;20396;-72
2022/12/28 02:36:53;;;;;;;20.42;2.42;;;9.90;99.90;;;8.98;100.00;101514.06;4170240;28;20033;-71
2022/12/28 02:39:19;;;;;;;10.55;2.10;;;10.00;99.90;;;9.00;100.00;101506.88;4169992;28;20083;-71
2022/12/28 02:41:24;;;;;;;10.63;1.95;;;10.00;99.90;;;9.11;100.00;101506.00;4170048;28;20033;-71
2022/12/28 02:43:25;;;;;;;10.57;2.72;;;10.00;99.90;;;9.10;100.00;101505.16;4169928;28;20044;-72
2022/12/28 02:50:20;;;;;;;14.07;1.75;;;10.10;99.90;;;9.17;100.00;101494.97;4170972;28;20048;-71
2022/12/28 02:52:55;;;;;;;14.30;1.92;;;10.10;99.90;;;9.14;100.00;101487.31;4171138;28;20500;-71
2022/12/28 02:58:39;;;;;;;7.03;1.90;;;10.10;99.90;;;9.09;100.00;101484.22;4171089;28;20124;-71
2022/12/28 03:01:21;;;;;;;8.02;1.40;;;10.10;99.90;;;9.10;100.00;101475.38;4170911;28;20451;-71
2022/12/28 03:03:42;;;;;;;9.13;2.00;;;10.10;99.90;;;9.15;100.00;101481.91;4170186;28;20468;-71
2022/12/28 03:08:49;;;;;;;9.45;1.92;;;10.10;99.90;;;9.15;100.00;101462.66;4170701;28;20041;-71
2022/12/28 03:11:18;;;;;;;11.90;1.67;;;10.10;99.90;;;9.14;100.00;101453.91;4170622;28;20060;-72
2022/12/28 03:13:49;;;;;;;10.20;2.60;;;10.10;99.90;;;9.12;100.00;101444.47;4169762;28;20029;-71
2022/12/28 03:15:50;;;;;;;18.58;1.77;;;10.10;99.90;;;9.17;100.00;101447.59;4169107;28;20100;-71
2022/12/28 03:32:32;;;;;;;11.48;1.63;;;9.90;99.90;;;8.96;100.00;101412.56;4169705;28;20048;-71
2022/12/28 03:34:33;;;;;;;9.15;2.38;;;9.90;99.90;;;9.00;100.00;101414.78;4169417;28;20025;-71
2022/12/28 03:36:47;;;;;;;16.67;1.80;;;9.90;99.90;;;9.02;100.00;101414.66;4170344;28;20501;-71
2022/12/28 03:39:11;;;;;;;12.97;2.20;;;9.90;99.90;;;9.10;100.00;101404.31;4169122;28;20029;-71
2022/12/28 03:41:25;;;;;;;13.30;2.55;;;10.00;99.90;;;9.03;100.00;101392.63;4169070;28;20768;-71
2022/12/28 03:43:44;;;;;;;15.57;2.53;;;10.00;99.90;;;9.00;100.00;101387.63;4152272;28;20100;-71
2022/12/28 03:46:08;;;;;;;14.50;2.75;;;9.90;99.90;;;8.99;100.00;101385.97;4154097;28;20117;-71
2022/12/28 03:48:10;;;;;;;7.50;1.98;;;9.90;99.90;;;8.94;100.00;101383.72;4169228;28;20088;-71
2022/12/28 03:50:11;;;;;;;12.93;1.50;;;9.90;99.90;;;8.94;100.00;101380.25;4152383;28;20022;-71
2022/12/28 03:52:12;;;;;;;14.43;1.92;;;9.90;99.90;;;8.98;100.00;101384.28;4170213;28;20021;-71
2022/12/28 03:54:16;;;;;;;12.13;2.05;;;9.90;99.90;;;8.95;100.00;101388.03;4168789;28;20017;-71
2022/12/28 03:56:21;;;;;;;13.33;2.70;;;9.90;99.90;;;8.99;100.00;101375.44;4168694;28;20437;-71
2022/12/28 03:58:21;;;;;;;13.85;1.92;;;9.90;99.90;;;9.08;100.00;101382.56;4169939;28;20264;-72
2022/12/28 04:00:22;;;;;;;13.63;2.20;;;10.00;99.90;;;9.15;100.00;101373.16;4169995;28;20032;-72
2022/12/28 04:02:23;;;;;;;18.13;2.70;;;10.00;99.90;;;9.20;100.00;101366.53;4169923;28;20044;-72
2022/12/28 04:04:24;;;;;;;13.70;1.98;;;10.10;99.90;;;9.26;100.00;101359.91;4170025;28;20029;-71
2022/12/28 04:06:25;;;;;;;12.90;2.40;;;10.10;99.90;;;9.31;100.00;101357.72;4169822;28;20041;-71
2022/12/28 04:08:27;;;;;;;7.70;1.67;;;10.20;99.90;;;9.38;100.00;101359.69;4169913;28;20041;-72
2022/12/28 04:10:27;;;;;;;11.88;2.95;;;10.30;99.90;;;9.38;100.00;101351.78;4169605;28;20021;-71
2022/12/28 04:12:28;;;;;;;14.27;2.00;;;10.30;99.90;;;9.42;100.00;101349.72;4168660;28;20120;-71
2022/12/28 04:14:29;;;;;;;11.05;2.20;;;10.30;99.90;;;9.45;100.00;101339.75;4169654;28;20094;-71
2022/12/28 04:16:30;;;;;;;11.27;2.38;;;10.30;99.90;;;9.44;100.00;101327.56;4168330;28;20081;-71
2022/12/28 04:18:33;;;;;;;10.90;1.50;;;10.40;99.90;;;9.46;100.00;101322.16;4168536;28;20036;-71
2022/12/28 04:20:34;;;;;;;14.43;2.28;;;10.40;99.90;;;9.48;100.00;101328.13;4168622;28;20033;-71
2022/12/28 04:22:34;;;;;;;13.88;2.47;;;10.40;99.90;;;9.53;100.00;101328.53;4169592;28;20025;-71
2022/12/28 04:24:35;;;;;;;11.35;1.50;;;10.40;99.90;;;9.58;100.00;101328.16;4168443;28;20053;-71
2022/12/28 04:26:36;;;;;;;16.98;2.92;;;10.50;99.90;;;9.61;100.00;101310.28;4168125;28;20026;-71
2022/12/28 04:28:38;;;;;;;9.48;1.88;;;10.50;99.90;;;9.59;100.00;101308.75;4168275;28;20654;-71
2022/12/28 04:30:39;;;;;;;14.05;3.15;;;10.50;99.90;;;9.62;100.00;101311.09;4168252;28;20574;-71
2022/12/28 04:32:40;;;;;;;8.70;1.67;;;10.50;99.90;;;9.61;100.00;101305.00;4169553;28;20041;-71
2022/12/28 04:34:41;;;;;;;13.30;2.78;;;10.50;99.90;;;9.61;100.00;101304.19;4168329;28;20481;-71
2022/12/28 04:36:42;;;;;;;12.23;2.55;;;10.50;99.90;;;9.65;100.00;101295.00;4168268;28;20025;-71
2022/12/28 04:38:42;;;;;;;7.85;1.30;;;10.60;99.90;;;9.67;100.00;101288.66;4167995;28;20029;-71
2022/12/28 04:40:44;;;;;;;12.52;1.98;;;10.60;99.90;;;9.65;100.00;101290.59;4156229;28;20087;-71
2022/12/28 04:42:44;;;;;;;11.75;1.95;;;10.60;99.90;;;9.73;100.00;101305.72;4168189;28;20029;-71
2022/12/28 04:44:45;;;;;;;13.82;2.58;;;10.60;99.90;;;9.78;100.00;101299.06;4169454;28;20037;-71
2022/12/28 04:46:46;;;;;;;11.32;2.50;;;10.70;99.90;;;9.84;100.00;101300.31;4169249;28;20030;-71
2022/12/28 04:48:47;;;;;;;15.60;2.13;;;10.70;99.90;;;9.93;100.00;101289.78;4169514;28;20021;-71
2022/12/28 04:50:48;;;;;;;18.35;2.63;;;10.70;99.90;;;9.92;100.00;101284.63;4169266;28;20025;-71
2022/12/28 04:52:49;;;;;;;11.98;2.17;;;10.80;99.90;;;9.91;100.00;101280.34;4168019;28;20085;-71
2022/12/28 04:54:50;;;;;;;10.27;2.10;;;10.80;99.90;;;9.94;100.00;101278.28;4155569;28;20036;-71
2022/12/28 04:56:51;;;;;;;14.82;1.83;;;10.80;99.90;;;9.95;100.00;101277.28;4168874;28;20026;-71
2022/12/28 04:58:58;;;;;;;10.65;2.80;;;10.80;99.90;;;9.93;100.00;101271.34;4169160;28;20079;-71
2022/12/28 05:01:13;;;;;;;11.73;2.15;;;10.80;99.90;;;9.94;100.00;101275.66;4167748;28;20061;-71
2022/12/28 05:03:14;;;;;;;10.80;1.98;;;10.90;99.90;;;9.96;100.00;101262.31;4167745;28;20068;-71
2022/12/28 05:05:15;;;;;;;14.10;2.15;;;10.90;99.90;;;9.97;100.00;101264.00;4168202;28;20038;-71
2022/12/28 05:07:15;;;;;;;10.98;1.50;;;10.90;99.90;;;10.00;100.00;101258.44;4168998;28;20075;-71
2022/12/28 05:09:18;;;;;;;9.05;2.08;;;10.90;99.90;;;10.00;100.00;101245.25;4169070;28;20021;-71
2022/12/28 05:11:26;;;;;;;18.58;2.60;;;10.90;99.90;;;9.99;100.00;101244.44;4167480;28;20029;-71
2022/12/28 05:13:27;;;;;;;17.60;2.58;;;10.90;99.90;;;9.97;100.00;101250.81;4167867;28;20533;-71
2022/12/28 05:15:28;;;;;;;12.07;2.92;;;10.90;99.90;;;9.97;100.00;101248.97;4168650;28;20018;-72
2022/12/28 05:17:29;;;;;;;9.50;1.95;;;10.90;99.90;;;9.97;100.00;101246.34;4167407;28;20057;-72
2022/12/28 05:19:30;;;;;;;18.25;2.92;;;10.90;99.90;;;10.06;100.00;101251.78;4168938;28;20118;-71
2022/12/28 05:21:31;;;;;;;14.85;2.60;;;10.90;99.90;;;10.06;100.00;101241.22;4167719;28;20140;-71
2022/12/28 05:23:34;;;;;;;16.42;3.72;;;10.90;99.90;;;10.03;100.00;101248.44;4168786;28;20029;-72
2022/12/28 05:25:35;;;;;;;10.40;2.35;;;10.90;99.90;;;10.00;100.00;101235.53;4167521;28;20539;-71
2022/12/28 05:27:36;;;;;;;12.02;4.00;;;10.90;99.90;;;9.98;100.00;101242.75;4155621;28;20029;-71
2022/12/28 05:29:36;;;;;;;13.15;2.88;;;10.90;99.90;;;9.96;100.00;101221.00;4168812;28;20370;-72
2022/12/28 05:31:37;;;;;;;13.77;1.50;;;10.90;99.90;;;10.02;100.00;101225.69;4168780;28;20067;-71
2022/12/28 05:33:39;;;;;;;14.05;2.38;;;10.90;99.90;;;9.97;100.00;101216.56;4168758;28;20105;-71
2022/12/28 05:35:40;;;;;;;13.95;1.58;;;10.90;99.90;;;10.00;100.00;101211.81;4167363;28;20249;-71
2022/12/28 05:37:41;;;;;;;10.82;2.33;;;10.90;99.90;;;9.99;100.00;101219.88;4167844;28;20044;-71
2022/12/28 05:39:42;;;;;;;10.57;2.10;;;10.90;99.90;;;9.87;100.00;101221.81;4168682;28;20029;-71
2022/12/28 05:41:42;;;;;;;12.82;1.30;;;10.80;99.90;;;9.92;100.00;101214.31;4167267;28;20436;-71
2022/12/28 05:43:44;;;;;;;9.18;1.50;;;10.80;99.90;;;9.84;100.00;101202.81;4168644;28;20025;-71
2022/12/28 05:45:45;;;;;;;10.40;2.13;;;10.80;99.90;;;9.82;100.00;101195.06;4167124;28;20048;-71
2022/12/28 05:47:46;;;;;;;11.02;2.35;;;10.80;99.90;;;9.80;100.00;101193.53;4167478;28;20022;-71
2022/12/28 05:49:47;;;;;;;6.30;1.13;;;10.70;99.90;;;9.77;100.00;101191.16;4168280;28;20108;-71
2022/12/28 05:51:52;;;;;;;8.18;2.75;;;10.70;99.90;;;9.77;100.00;101191.16;4167617;28;20440;-71
2022/12/28 05:53:53;;;;;;;14.18;1.58;;;10.70;99.90;;;9.70;100.00;101190.91;4167542;28;20028;-71
2022/12/28 05:56:23;;;;;;;11.57;1.70;;;10.60;99.90;;;9.73;100.00;101193.28;4166678;28;20013;-71
2022/12/28 05:58:24;;;;;;;12.70;2.10;;;10.60;99.90;;;9.76;100.00;101190.38;4167270;28;20039;-71
2022/12/28 06:00:24;;;;;;;14.45;2.35;;;10.60;99.90;;;9.76;100.00;101185.09;4167400;28;20405;-71
2022/12/28 06:02:26;;;;;;;10.73;1.95;;;10.60;99.90;;;9.80;100.00;101193.53;4168514;28;20060;-71
2022/12/28 06:04:27;;;;;;;16.70;2.17;;;10.70;99.90;;;9.81;100.00;101182.88;4168467;28;20025;-71
2022/12/28 06:06:29;;;;;;;17.02;3.83;;;10.70;99.90;;;9.86;100.00;101175.34;4166825;28;20037;-71
2022/12/28 06:08:30;;;;;;;12.98;1.95;;;10.70;99.90;;;9.84;100.00;101173.84;4170728;28;20552;-71
2022/12/28 06:10:31;;;;;;;14.10;2.33;;;10.70;99.90;;;9.84;100.00;101173.84;4170486;28;20060;-71
2022/12/28 06:12:32;;;;;;;11.80;2.05;;;10.70;99.90;;;9.78;100.00;101169.13;4171797;28;20022;-71
2022/12/28 06:14:33;;;;;;;8.85;1.85;;;10.70;99.90;;;9.73;100.00;101164.31;4171208;28;20068;-71
2022/12/28 06:16:40;;;;;;;18.67;2.85;;;10.60;99.90;;;9.73;100.00;101161.66;4171475;28;20058;-72
2022/12/28 06:18:42;;;;;;;17.08;2.92;;;10.60;99.90;;;9.84;100.00;101158.88;4170610;28;20104;-71
2022/12/28 06:20:43;;;;;;;12.23;2.42;;;10.70;99.90;;;9.88;100.00;101160.25;4153838;28;20102;-72
2022/12/28 06:22:44;;;;;;;10.80;1.95;;;10.70;99.90;;;9.85;100.00;101152.63;4171404;28;20041;-72
2022/12/28 06:24:45;;;;;;;13.25;2.83;;;10.70;99.90;;;9.94;100.00;101146.53;4170364;28;20049;-72
2022/12/28 06:26:46;;;;;;;11.45;2.08;;;10.80;99.90;;;9.93;100.00;101155.38;4169935;28;20033;-71
2022/12/28 06:28:48;;;;;;;10.80;1.80;;;10.80;99.90;;;9.88;100.00;101155.00;4171585;28;20026;-71
2022/12/28 06:30:49;;;;;;;12.70;2.28;;;10.80;99.90;;;9.93;100.00;101146.66;4153624;28;20022;-72
2022/12/28 06:32:49;;;;;;;8.18;2.28;;;10.80;99.90;;;9.95;100.00;101147.31;4160641;28;20018;-71
2022/12/28 06:34:50;;;;;;;9.55;2.20;;;10.80;99.90;;;10.06;100.00;101139.28;4171699;28;20034;-72
2022/12/28 06:36:51;;;;;;;11.60;2.17;;;10.90;99.90;;;10.09;100.00;101132.88;4171332;28;20038;-71
2022/12/28 06:38:54;;;;;;;11.07;2.75;;;10.90;99.90;;;10.04;100.00;101117.47;4171170;28;20025;-71
2022/12/28 06:41:01;;;;;;;12.20;2.42;;;10.90;99.90;;;10.03;100.00;101111.38;4169923;28;20036;-71
2022/12/28 06:43:02;;;;;;;10.43;2.90;;;10.90;99.90;;;10.10;100.00;101118.72;4153584;28;20033;-71
2022/12/28 06:45:04;;;;;;;17.98;3.53;;;10.90;99.90;;;10.06;100.00;101107.66;4171252;28;20079;-71
2022/12/28 06:47:05;;;;;;;11.15;1.77;;;10.90;99.90;;;10.05;100.00;101090.16;4153264;28;20493;-71
2022/12/28 06:49:06;;;;;;;9.10;1.98;;;11.00;99.90;;;10.06;100.00;101091.00;4171180;28;20025;-71
2022/12/28 06:51:21;;;;;;;10.77;2.45;;;11.00;99.90;;;10.14;100.00;101086.69;4170059;28;20029;-71
2022/12/28 06:53:24;;;;;;;16.63;2.33;;;11.00;99.90;;;10.13;100.00;101094.69;4171084;28;20480;-71
2022/12/28 06:55:25;;;;;;;14.90;1.75;;;11.00;99.90;;;10.18;100.00;101103.06;4169857;28;20064;-71
2022/12/28 06:57:26;;;;;;;16.10;2.15;;;11.00;99.90;;;10.08;100.00;101107.50;4170911;28;20520;-71
2022/12/28 06:59:27;;;;;;;12.35;1.70;;;11.00;99.90;;;10.16;100.00;101100.53;4169784;28;20025;-71
2022/12/28 07:01:33;;;;;;;20.77;2.70;;;11.00;99.90;;;10.14;100.00;101088.50;4170793;28;20026;-71
2022/12/28 07:03:34;;;;;;;12.85;2.00;;;11.00;99.90;;;10.14;100.00;101101.66;4169852;28;20083;-72
2022/12/28 07:05:35;;;;;;;10.63;2.55;;;11.00;99.90;;;10.14;100.00;101101.66;4169657;28;20085;-71
2022/12/28 07:07:36;;;;;;;11.07;2.40;;;11.00;99.90;;;10.14;100.00;101093.75;4170431;28;20448;-71
2022/12/28 07:09:36;;;;;;;12.27;2.22;;;11.00;99.90;;;10.21;100.00;101100.13;4170766;28;20021;-71
2022/12/28 07:11:37;;;;;;;12.75;2.22;;;11.00;99.90;;;10.15;100.00;101092.81;4169230;28;20053;-71
2022/12/28 07:13:39;;;;;;;15.32;2.75;;;11.10;99.90;;;10.14;100.00;101106.94;4169648;28;20101;-71
2022/12/28 07:15:39;;;;;;;15.10;3.22;;;11.10;99.90;;;10.10;100.00;101101.09;4170074;28;20029;-71
2022/12/28 07:17:40;;;;;;;20.85;3.13;;;11.00;99.90;;;10.00;100.00;101108.22;4168799;28;20037;-71
2022/12/28 07:19:41;;;;;;;13.60;2.80;;;10.90;99.90;;;10.01;100.00;101115.97;4170214;28;20025;-71
2022/12/28 07:21:42;;;;;;;16.13;2.95;;;10.80;99.90;;;9.91;100.00;101122.25;4170676;28;20028;-71
2022/12/28 07:23:43;;;;;;;14.95;3.25;;;10.80;99.90;;;9.82;100.00;101097.59;4170599;28;20104;-71
2022/12/28 07:25:44;;;;;;;13.75;2.22;;;10.70;99.90;;;9.81;100.00;101098.56;4152511;28;20026;-71
2022/12/28 07:27:45;;;;;;;13.63;2.65;;;10.70;99.90;;;9.71;100.00;101102.16;4170521;28;20038;-71
2022/12/28 07:29:46;;;;;;;10.88;3.58;;;10.60;99.90;;;9.59;100.00;101092.78;4170509;28;20013;-71
2022/12/28 07:31:47;;;;;;;14.77;1.90;;;10.50;99.90;;;9.46;100.00;101085.16;4170480;28;20021;-71
2022/12/28 07:33:50;;;;;;;14.68;2.03;;;10.40;99.90;;;9.47;100.00;101083.38;4169145;28;20029;-71
2022/12/28 07:35:51;;;;;;;10.38;1.63;;;10.30;99.90;;;9.35;100.00;101078.25;4169283;28;20096;-71
2022/12/28 07:37:53;;;;;;;16.83;2.17;;;10.30;99.90;;;9.26;100.00;101078.25;4169198;28;20029;-71
2022/12/28 07:39:54;;;;;;;10.15;2.03;;;10.20;99.90;;;9.27;100.00;101085.19;4170363;28;20030;-71
2022/12/28 07:41:55;;;;;;;9.05;1.88;;;10.10;99.90;;;9.17;100.00;101074.63;4168878;28;20025;-71
2022/12/28 07:43:56;;;;;;;13.32;1.95;;;10.10;99.90;;;9.14;100.00;101079.38;4170360;28;20053;-71
2022/12/28 07:46:14;;;;;;;19.42;2.30;;;10.00;99.90;;;9.14;100.00;101074.91;4169204;28;20048;-71
2022/12/28 07:48:15;;;;;;;12.98;2.47;;;10.00;99.90;;;9.20;100.00;101084.09;4169928;28;20021;-71
2022/12/28 07:50:16;;;;;;;9.75;2.30;;;10.10;99.90;;;9.12;100.00;101081.28;4168778;28;20076;-71
2022/12/28 07:52:17;;;;;;;13.55;2.15;;;10.00;99.90;;;9.19;100.00;101087.69;4169039;28;20033;-71
2022/12/28 07:54:18;;;;;;;11.90;2.47;;;10.00;99.90;;;9.15;100.00;101078.38;4170133;28;20017;-71
2022/12/28 07:56:21;;;;;;;16.77;3.38;;;10.00;99.90;;;9.13;100.00;101085.59;4168621;28;20033;-71
2022/12/28 07:58:23;;;;;;;14.75;3.10;;;10.00;99.90;;;9.08;100.00;101088.63;4168301;28;20036;-71
2022/12/28 08:00:23;;;;;;;15.82;3.60;;;10.00;99.90;;;9.14;100.00;101080.19;4168972;28;20041;-71
2022/12/28 08:02:24;;;;;;;12.02;2.40;;;10.00;99.90;;;9.22;100.00;101079.50;4169922;28;20021;-71
2022/12/28 08:04:25;;;;;;;16.08;3.03;;;10.00;99.90;;;9.21;100.00;101088.34;4169961;28;20033;-71
2022/12/28 08:06:28;;;;;;;14.98;2.33;;;10.00;99.90;;;9.18;100.00;101078.09;4168366;28;20029;-72
2022/12/28 08:08:30;;;;;;;14.57;2.50;;;10.10;99.90;;;9.29;100.00;101073.53;4159506;28;20433;-71
2022/12/28 08:10:32;;;;;;;13.52;2.70;;;10.10;99.90;;;9.36;100.00;101074.66;4168662;28;20033;-71
2022/12/28 08:12:32;;;;;;;19.15;3.45;;;10.10;99.90;;;9.50;100.00;101070.72;4168557;28;20044;-71
2022/12/28 08:14:33;;;;;;;17.00;2.85;;;10.20;99.90;;;9.65;100.00;101074.59;4168486;28;20037;-71
2022/12/28 08:16:41;;;;;;;19.25;3.75;;;10.30;99.90;;;9.69;100.00;101065.44;4169609;28;20064;-71
2022/12/28 08:18:42;;;;;;;18.60;3.42;;;10.40;99.90;;;9.63;100.00;101058.09;4168691;28;20033;-71
2022/12/28 08:20:43;;;;;;;9.18;2.25;;;10.50;99.90;;;9.78;100.00;101054.03;4169808;28;20033;-71
2022/12/28 08:22:44;;;;;;;20.25;4.47;;;10.50;99.90;;;9.76;100.00;101042.84;4169079;28;20466;-71
2022/12/28 08:24:44;;;;;;;19.58;3.72;;;10.60;99.90;;;9.75;100.00;101043.78;4169750;28;20081;-71
2022/12/28 08:26:47;;;;;;;15.80;3.75;;;10.60;99.90;;;9.76;100.00;101027.03;4169200;28;20052;-72
2022/12/28 08:28:52;;;;;;;14.98;2.30;;;10.60;99.90;;;9.80;100.00;101027.53;4168350;28;20033;-71
2022/12/28 08:30:52;;;;;;;19.05;3.25;;;10.70;99.90;;;9.86;100.00;101037.50;4168233;28;20026;-71
2022/12/28 08:32:53;;;;;;;21.63;3.47;;;10.70;99.90;;;9.88;100.00;101027.69;4151827;28;20529;-71
2022/12/28 08:34:54;;;;;;;19.98;3.50;;;10.70;99.90;;;9.96;100.00;101023.34;4169464;28;20022;-71
2022/12/28 08:36:55;;;;;;;18.63;3.13;;;10.70;99.90;;;9.94;100.00;101017.41;4151398;28;20046;-71
2022/12/28 08:38:57;;;;;;;20.48;3.30;;;10.80;99.90;;;10.03;100.00;101026.22;4169478;28;20025;-71
2022/12/28 08:41:01;;;;;;;17.77;3.80;;;10.80;99.90;;;10.00;100.00;101018.63;4151495;28;20030;-71
2022/12/28 08:43:02;;;;;;;15.82;3.10;;;10.80;99.90;;;10.01;100.00;101021.09;4168156;28;20064;-71
2022/12/28 08:45:03;;;;;;;19.17;3.47;;;10.80;99.90;;;10.03;100.00;101011.22;4168113;28;20116;-71
2022/12/28 08:47:04;;;;;;;12.80;3.08;;;10.90;99.90;;;10.13;100.00;101013.84;4169056;28;20033;-71
2022/12/28 08:49:05;;;;;;;17.65;4.07;;;10.90;99.90;;;10.21;100.00;101011.34;4169419;28;20033;-71
2022/12/28 08:51:13;;;;;;;15.02;4.25;;;11.00;99.90;;;10.19;100.00;101004.53;4169209;28;20056;-71
2022/12/28 08:53:14;;;;;;;14.93;2.85;;;11.10;99.90;;;10.23;100.00;100998.81;4168071;28;20032;-71
2022/12/28 08:55:15;;;;;;;17.75;3.78;;;11.10;99.90;;;10.31;100.00;100995.44;4169065;28;20029;-71
2022/12/28 08:57:16;;;;;;;12.13;2.40;;;11.10;99.90;;;10.32;100.00;100991.84;4167782;28;20057;-71